createdAt,value
2018-02-02T00:02:07.924Z,-0.10
2018-02-02T00:04:35.550Z,-0.20
2018-02-02T00:07:03.206Z,-0.20
2018-02-02T00:09:30.836Z,-0.30
2018-02-02T00:11:58.421Z,-0.30
2018-02-02T00:14:26.045Z,-0.50
2018-02-02T00:16:53.607Z,-0.70
2018-02-02T00:19:21.223Z,-0.80
2018-02-02T00:21:48.839Z,-1.00
2018-02-02T00:24:16.409Z,-1.00
2018-02-02T00:26:44.023Z,-1.00
2018-02-02T00:29:11.646Z,-1.00
2018-02-02T00:31:39.273Z,-1.00
2018-02-02T00:34:06.842Z,-0.90
2018-02-02T00:36:34.426Z,-0.90
2018-02-02T00:39:01.995Z,-0.90
2018-02-02T00:41:29.584Z,-0.80
2018-02-02T00:43:57.180Z,-0.80
2018-02-02T00:46:24.746Z,-0.90
2018-02-02T00:48:52.330Z,-0.90
2018-02-02T00:51:35.635Z,-0.90
2018-02-02T00:54:03.196Z,-1.00
2018-02-02T00:56:30.801Z,-1.20
2018-02-02T00:58:58.448Z,-1.20
2018-02-02T01:01:26.034Z,-1.20
2018-02-02T01:03:53.641Z,-1.20
2018-02-02T01:06:21.243Z,-1.20
2018-02-02T01:08:48.844Z,-1.20
2018-02-02T01:11:16.411Z,-1.10
2018-02-02T01:13:43.975Z,-1.20
2018-02-02T01:16:11.602Z,-1.10
2018-02-02T01:18:39.994Z,-1.10
2018-02-02T01:21:08.322Z,-1.00
2018-02-02T01:23:35.934Z,-1.10
2018-02-02T01:26:03.534Z,-0.80
2018-02-02T01:28:31.154Z,-0.70
2018-02-02T01:30:58.772Z,-0.60
2018-02-02T01:33:26.408Z,-0.70
2018-02-02T01:35:54.010Z,-0.70
2018-02-02T01:38:21.632Z,-0.60
2018-02-02T01:40:49.202Z,-0.50
2018-02-02T01:43:16.805Z,-0.60
2018-02-02T01:45:44.386Z,-0.60
2018-02-02T01:48:20.850Z,-0.50
2018-02-02T01:50:50.135Z,-0.40
2018-02-02T01:53:17.772Z,-0.40
2018-02-02T01:55:45.392Z,-0.40
2018-02-02T01:58:20.738Z,-0.40
2018-02-02T02:00:48.297Z,-0.50
2018-02-02T02:03:15.928Z,-0.50
2018-02-02T02:05:44.329Z,-0.50
2018-02-02T02:08:11.964Z,-0.60
2018-02-02T02:10:40.308Z,-0.60
2018-02-02T02:13:07.935Z,-0.60
2018-02-02T02:15:35.547Z,-0.70
2018-02-02T02:18:03.139Z,-0.70
2018-02-02T02:20:30.763Z,-0.60
2018-02-02T02:22:58.367Z,-0.50
2018-02-02T02:25:25.963Z,-0.50
2018-02-02T02:27:53.559Z,-0.50
2018-02-02T02:30:21.967Z,-0.50
2018-02-02T02:32:49.598Z,-0.60
2018-02-02T02:35:18.009Z,-0.40
2018-02-02T02:37:45.665Z,-0.40
2018-02-02T02:40:13.293Z,-0.40
2018-02-02T02:42:40.919Z,-0.20
2018-02-02T02:45:08.535Z,-0.20
2018-02-02T02:47:36.127Z,-0.20
2018-02-02T02:50:03.760Z,-0.40
2018-02-02T02:52:31.340Z,-0.40
2018-02-02T02:54:58.966Z,-0.30
2018-02-02T02:57:27.350Z,-0.40
2018-02-02T02:59:55.712Z,-0.60
2018-02-02T03:02:23.335Z,-0.60
2018-02-02T03:04:50.956Z,-0.70
2018-02-02T03:07:18.591Z,-0.90
2018-02-02T03:09:46.159Z,-0.90
2018-02-02T03:12:14.523Z,-1.20
2018-02-02T03:14:42.135Z,-1.20
2018-02-02T03:17:09.719Z,-1.20
2018-02-02T03:19:37.300Z,-1.20
2018-02-02T03:22:04.914Z,-1.10
2018-02-02T03:24:32.475Z,-1.20
2018-02-02T03:27:00.074Z,-1.20
2018-02-02T03:29:27.658Z,-1.30
2018-02-02T03:31:56.059Z,-1.60
2018-02-02T03:34:23.650Z,-1.60
2018-02-02T03:36:51.275Z,-1.70
2018-02-02T03:39:18.859Z,-2.00
2018-02-02T03:41:46.499Z,-2.00
2018-02-02T03:44:14.066Z,-2.20
2018-02-02T03:46:41.673Z,-2.30
2018-02-02T03:49:09.263Z,-2.40
2018-02-02T03:51:37.646Z,-2.50
2018-02-02T03:54:05.239Z,-2.50
2018-02-02T03:56:32.843Z,-2.40
2018-02-02T03:59:00.486Z,-2.40
2018-02-02T04:01:28.127Z,-2.30
2018-02-02T04:03:55.740Z,-2.30
2018-02-02T04:06:24.103Z,-2.40
2018-02-02T04:08:51.752Z,-2.40
2018-02-02T04:11:19.385Z,-2.40
2018-02-02T04:13:46.940Z,-2.40
2018-02-02T04:16:14.535Z,-2.30
2018-02-02T04:18:42.118Z,-2.30
2018-02-02T04:21:10.470Z,-2.30
2018-02-02T04:23:38.081Z,-2.40
2018-02-02T04:26:05.683Z,-2.30
2018-02-02T04:28:33.330Z,-2.40
2018-02-02T04:31:00.891Z,-2.40
2018-02-02T04:33:28.484Z,-2.50
2018-02-02T04:36:02.371Z,-2.50
2018-02-02T04:38:30.035Z,-2.50
2018-02-02T04:40:57.643Z,-2.40
2018-02-02T04:43:25.242Z,-2.10
2018-02-02T04:45:52.888Z,-2.00
2018-02-02T04:48:20.454Z,-1.90
2018-02-02T04:50:48.050Z,-1.70
2018-02-02T04:53:15.670Z,-1.90
2018-02-02T04:55:43.294Z,-1.80
2018-02-02T04:58:11.673Z,-1.40
2018-02-02T05:00:40.040Z,-1.20
2018-02-02T05:03:08.378Z,-1.20
2018-02-02T05:05:35.999Z,-1.20
2018-02-02T05:08:03.563Z,-1.10
2018-02-02T05:10:31.170Z,-1.20
2018-02-02T05:12:58.787Z,-1.30
2018-02-02T05:15:26.343Z,-1.30
2018-02-02T05:17:53.926Z,-1.10
2018-02-02T05:20:21.515Z,-1.00
2018-02-02T05:22:49.095Z,-1.10
2018-02-02T05:25:17.446Z,-1.00
2018-02-02T05:27:45.071Z,-1.00
2018-02-02T05:30:12.654Z,-0.90
2018-02-02T05:32:40.283Z,-1.00
2018-02-02T05:35:07.850Z,-1.20
2018-02-02T05:37:35.445Z,-1.40
2018-02-02T05:40:03.054Z,-1.60
2018-02-02T05:42:30.668Z,-1.90
2018-02-02T05:44:59.138Z,-2.10
2018-02-02T05:47:26.722Z,-2.40
2018-02-02T05:49:54.352Z,-2.50
2018-02-02T05:52:21.983Z,-2.70
2018-02-02T05:54:49.545Z,-2.80
2018-02-02T05:57:17.173Z,-2.90
2018-02-02T05:59:44.786Z,-3.00
2018-02-02T06:02:12.383Z,-3.00
2018-02-02T06:04:40.020Z,-2.80
2018-02-02T06:07:07.612Z,-3.00
2018-02-02T06:09:35.208Z,-3.20
2018-02-02T06:12:02.850Z,-3.20
2018-02-02T06:14:31.226Z,-3.30
2018-02-02T06:16:59.595Z,-3.30
2018-02-02T06:19:36.760Z,-3.30
2018-02-02T06:22:04.331Z,-3.40
2018-02-02T06:24:32.707Z,-3.30
2018-02-02T06:27:00.298Z,-3.30
2018-02-02T06:29:27.894Z,-3.10
2018-02-02T06:31:55.496Z,-2.90
2018-02-02T06:34:23.156Z,-2.80
2018-02-02T06:36:50.716Z,-2.60
2018-02-02T06:39:18.326Z,-2.60
2018-02-02T06:41:45.980Z,-2.30
2018-02-02T06:44:13.612Z,-2.00
2018-02-02T06:46:41.245Z,-2.10
2018-02-02T06:49:08.836Z,-2.10
2018-02-02T06:51:37.285Z,-2.20
2018-02-02T06:54:04.915Z,-2.20
2018-02-02T06:56:32.488Z,-2.30
2018-02-02T06:59:00.134Z,-2.20
2018-02-02T07:01:27.738Z,-2.10
2018-02-02T07:03:55.334Z,-1.80
2018-02-02T07:06:22.934Z,-1.60
2018-02-02T07:08:50.524Z,-1.40
2018-02-02T07:11:18.911Z,-1.10
2018-02-02T07:13:47.230Z,-1.00
2018-02-02T07:16:14.828Z,-1.00
2018-02-02T07:18:42.418Z,-0.90
2018-02-02T07:21:10.032Z,-0.80
2018-02-02T07:23:37.661Z,-0.80
2018-02-02T07:26:06.370Z,-0.70
2018-02-02T07:28:34.016Z,-0.60
2018-02-02T07:31:01.671Z,-0.50
2018-02-02T07:33:29.284Z,-0.10
2018-02-02T07:35:56.856Z,0.00
2018-02-02T07:38:25.210Z,0.10
2018-02-02T07:40:52.816Z,0.10
2018-02-02T07:43:20.398Z,0.20
2018-02-02T07:45:48.001Z,0.20
2018-02-02T07:48:15.651Z,0.10
2018-02-02T07:50:43.209Z,0.20
2018-02-02T07:53:10.779Z,0.20
2018-02-02T07:55:38.374Z,0.30
2018-02-02T07:58:05.952Z,0.40
2018-02-02T08:00:39.122Z,0.40
2018-02-02T08:03:06.699Z,0.40
2018-02-02T08:05:34.276Z,0.40
2018-02-02T08:08:01.874Z,0.60
2018-02-02T08:10:29.514Z,0.70
2018-02-02T08:12:57.102Z,0.70
2018-02-02T08:15:25.477Z,0.80
2018-02-02T08:17:53.063Z,0.80
2018-02-02T08:20:20.638Z,0.90
2018-02-02T08:22:48.231Z,0.90
2018-02-02T08:25:15.809Z,1.00
2018-02-02T08:27:43.426Z,1.20
2018-02-02T08:30:11.766Z,1.90
2018-02-02T08:32:40.147Z,1.80
2018-02-02T08:35:08.491Z,1.70
2018-02-02T08:37:36.063Z,1.70
2018-02-02T08:40:03.669Z,1.80
2018-02-02T08:42:31.264Z,2.40
2018-02-02T08:44:58.886Z,2.60
2018-02-02T08:47:26.465Z,3.20
2018-02-02T08:49:54.132Z,4.40
2018-02-02T08:52:21.698Z,5.10
2018-02-02T08:54:49.298Z,5.30
2018-02-02T08:57:17.653Z,5.40
2018-02-02T08:59:45.266Z,5.40
2018-02-02T09:02:12.845Z,5.50
2018-02-02T09:04:40.447Z,5.70
2018-02-02T09:07:08.044Z,5.90
2018-02-02T09:09:35.640Z,6.00
2018-02-02T09:12:03.247Z,6.70
2018-02-02T09:14:30.822Z,6.10
2018-02-02T09:16:58.387Z,6.00
2018-02-02T09:19:25.996Z,5.60
2018-02-02T09:21:53.077Z,5.80
2018-02-02T09:24:20.674Z,6.30
2018-02-02T09:26:48.271Z,8.10
2018-02-02T09:29:16.616Z,9.30
2018-02-02T09:31:44.202Z,9.30
2018-02-02T09:34:11.790Z,8.90
2018-02-02T09:36:40.184Z,8.80
2018-02-02T09:39:07.746Z,8.80
2018-02-02T09:41:35.315Z,8.40
2018-02-02T09:44:03.659Z,8.90
2018-02-02T09:46:32.017Z,8.40
2018-02-02T09:48:59.652Z,8.40
2018-02-02T09:51:27.223Z,8.80
2018-02-02T09:53:54.825Z,8.60
2018-02-02T09:56:22.431Z,7.40
2018-02-02T09:58:50.026Z,7.00
2018-02-02T10:01:18.413Z,8.20
2018-02-02T10:03:46.801Z,8.90
2018-02-02T10:06:15.196Z,8.90
2018-02-02T10:08:42.830Z,8.90
2018-02-02T10:11:11.215Z,8.00
2018-02-02T10:13:39.518Z,7.40
2018-02-02T10:16:14.591Z,7.40
2018-02-02T10:18:42.142Z,6.20
2018-02-02T10:21:09.717Z,5.50
2018-02-02T10:23:37.347Z,4.90
2018-02-02T10:26:04.967Z,4.30
2018-02-02T10:28:33.301Z,3.90
2018-02-02T10:31:00.901Z,3.90
2018-02-02T10:33:29.249Z,4.00
2018-02-02T10:35:56.858Z,4.00
2018-02-02T10:38:24.481Z,3.90
2018-02-02T10:40:52.048Z,3.90
2018-02-02T10:43:19.689Z,3.80
2018-02-02T10:45:47.223Z,4.00
2018-02-02T10:48:14.814Z,4.20
2018-02-02T10:50:42.401Z,4.30
2018-02-02T10:53:10.820Z,4.20
2018-02-02T10:55:38.403Z,4.20
2018-02-02T10:58:05.950Z,4.10
2018-02-02T11:00:39.141Z,4.50
2018-02-02T11:03:12.313Z,4.40
2018-02-02T11:05:39.908Z,4.50
2018-02-02T11:08:07.502Z,4.10
2018-02-02T11:10:35.850Z,4.20
2018-02-02T11:13:03.463Z,4.10
2018-02-02T11:15:31.107Z,4.10
2018-02-02T11:17:59.434Z,3.80
2018-02-02T11:20:27.051Z,3.70
2018-02-02T11:22:54.698Z,3.80
2018-02-02T11:25:23.062Z,4.00
2018-02-02T11:27:50.687Z,4.00
2018-02-02T11:30:18.326Z,4.20
2018-02-02T11:32:45.910Z,4.10
2018-02-02T11:35:13.515Z,4.20
2018-02-02T11:37:41.920Z,3.90
2018-02-02T11:40:09.478Z,3.90
2018-02-02T11:42:37.107Z,3.90
2018-02-02T11:45:04.726Z,3.90
2018-02-02T11:47:32.267Z,4.00
2018-02-02T11:49:59.854Z,4.40
2018-02-02T11:52:27.451Z,4.40
2018-02-02T11:54:55.843Z,4.00
2018-02-02T11:57:23.455Z,4.00
2018-02-02T11:59:51.016Z,3.90
2018-02-02T12:02:18.633Z,3.90
2018-02-02T12:04:46.224Z,4.00
2018-02-02T12:07:13.814Z,3.90
2018-02-02T12:09:41.393Z,4.00
2018-02-02T12:12:09.764Z,3.90
2018-02-02T12:14:37.346Z,3.90
2018-02-02T12:17:04.933Z,4.00
2018-02-02T12:19:32.502Z,4.10
2018-02-02T12:22:05.714Z,4.20
2018-02-02T12:24:34.960Z,4.20
2018-02-02T12:27:03.152Z,4.30
2018-02-02T12:29:32.648Z,4.50
2018-02-02T12:32:02.861Z,4.40
2018-02-02T12:34:33.124Z,4.40
2018-02-02T12:37:00.732Z,4.40
2018-02-02T12:39:29.173Z,4.40
2018-02-02T12:41:56.746Z,4.40
2018-02-02T12:44:24.342Z,4.50
2018-02-02T12:46:51.933Z,4.70
2018-02-02T12:49:19.511Z,4.70
2018-02-02T12:51:47.130Z,4.70
2018-02-02T12:54:14.775Z,4.60
2018-02-02T12:56:43.190Z,4.30
2018-02-02T12:59:10.783Z,4.30
2018-02-02T13:01:50.887Z,4.40
2018-02-02T13:04:18.484Z,4.40
2018-02-02T13:06:46.067Z,4.40
2018-02-02T13:09:13.660Z,4.60
2018-02-02T13:11:41.248Z,4.50
2018-02-02T13:14:08.827Z,4.40
2018-02-02T13:16:36.458Z,4.30
2018-02-02T13:19:04.035Z,4.10
2018-02-02T13:21:31.587Z,4.20
2018-02-02T13:23:59.186Z,4.30
2018-02-02T13:26:26.781Z,4.30
2018-02-02T13:28:54.359Z,4.30
2018-02-02T13:31:21.966Z,4.40
2018-02-02T13:33:49.583Z,4.30
2018-02-02T13:36:17.179Z,4.20
2018-02-02T13:38:44.774Z,4.30
2018-02-02T13:41:12.330Z,4.20
2018-02-02T13:43:39.971Z,4.30
2018-02-02T13:46:08.299Z,4.70
2018-02-02T13:48:35.860Z,4.70
2018-02-02T13:51:03.463Z,4.70
2018-02-02T13:53:31.069Z,4.60
2018-02-02T13:55:58.619Z,4.70
2018-02-02T13:58:26.206Z,4.60
2018-02-02T14:00:53.840Z,4.60
2018-02-02T14:03:21.418Z,4.40
2018-02-02T14:05:49.004Z,4.20
2018-02-02T14:08:16.608Z,4.10
2018-02-02T14:10:44.171Z,4.00
2018-02-02T14:13:11.756Z,4.10
2018-02-02T14:15:39.384Z,4.00
2018-02-02T14:18:07.734Z,4.00
2018-02-02T14:20:46.405Z,4.00
2018-02-02T14:23:13.955Z,4.20
2018-02-02T14:25:41.561Z,4.20
2018-02-02T14:28:09.195Z,4.00
2018-02-02T14:30:36.781Z,3.90
2018-02-02T14:33:04.380Z,3.80
2018-02-02T14:35:32.740Z,3.60
2018-02-02T14:38:00.330Z,3.60
2018-02-02T14:40:29.846Z,3.60
2018-02-02T14:42:57.624Z,3.70
2018-02-02T14:45:25.291Z,3.60
2018-02-02T14:47:54.817Z,3.60
2018-02-02T14:50:22.448Z,3.40
2018-02-02T14:52:50.050Z,3.40
2018-02-02T14:55:17.659Z,3.40
2018-02-02T14:57:45.260Z,3.40
2018-02-02T15:00:12.848Z,3.40
2018-02-02T15:02:42.391Z,3.30
2018-02-02T15:05:10.001Z,3.30
2018-02-02T15:07:37.630Z,3.30
2018-02-02T15:10:08.520Z,3.30
2018-02-02T15:12:36.167Z,3.20
2018-02-02T15:15:03.762Z,3.10
2018-02-02T15:17:31.377Z,3.10
2018-02-02T15:19:58.978Z,3.10
2018-02-02T15:22:27.479Z,3.00
2018-02-02T15:24:55.078Z,2.90
2018-02-02T15:27:22.704Z,2.80
2018-02-02T15:29:50.288Z,2.80
2018-02-02T15:32:17.869Z,2.80
2018-02-02T15:34:45.465Z,2.80
2018-02-02T15:37:13.079Z,2.80
2018-02-02T15:39:40.700Z,2.80
2018-02-02T15:42:08.318Z,2.80
2018-02-02T15:44:36.681Z,2.90
2018-02-02T15:47:04.300Z,2.80
2018-02-02T15:49:31.922Z,2.80
2018-02-02T15:52:00.370Z,2.80
2018-02-02T15:54:27.994Z,2.80
2018-02-02T15:56:55.627Z,2.80
2018-02-02T15:59:23.989Z,2.80
2018-02-02T16:01:52.330Z,2.80
2018-02-02T16:04:19.939Z,2.80
2018-02-02T16:06:49.470Z,2.70
2018-02-02T16:09:17.077Z,2.70
2018-02-02T16:11:44.666Z,2.70
2018-02-02T16:14:13.025Z,2.70
2018-02-02T16:16:40.915Z,2.70
2018-02-02T16:19:08.567Z,2.70
2018-02-02T16:21:36.943Z,2.70
2018-02-02T16:24:10.300Z,2.60
2018-02-02T16:26:37.882Z,2.60
2018-02-02T16:29:06.432Z,2.60
2018-02-02T16:31:33.994Z,2.60
2018-02-02T16:34:01.598Z,2.60
2018-02-02T16:36:29.931Z,2.60
2018-02-02T16:38:59.513Z,2.60
2018-02-02T16:41:27.116Z,2.60
2018-02-02T16:43:54.747Z,2.60
2018-02-02T16:46:22.330Z,2.60
2018-02-02T16:48:49.969Z,2.60
2018-02-02T16:51:17.540Z,2.60
2018-02-02T16:53:45.125Z,2.60
2018-02-02T16:56:12.688Z,2.60
2018-02-02T16:58:42.773Z,2.60
2018-02-02T17:01:10.415Z,2.60
2018-02-02T17:03:38.009Z,2.50
2018-02-02T17:06:05.575Z,2.50
2018-02-02T17:08:33.179Z,2.50
2018-02-02T17:11:00.756Z,2.50
2018-02-02T17:13:28.351Z,2.50
2018-02-02T17:15:55.956Z,2.50
2018-02-02T17:18:27.106Z,2.50
2018-02-02T17:20:55.488Z,2.40
2018-02-02T17:23:23.089Z,2.40
2018-02-02T17:25:50.679Z,2.40
2018-02-02T17:28:21.496Z,2.40
2018-02-02T17:30:49.056Z,2.40
2018-02-02T17:33:16.674Z,2.40
2018-02-02T17:35:44.309Z,2.40
2018-02-02T17:38:12.705Z,2.30
2018-02-02T17:40:41.257Z,2.30
2018-02-02T17:43:08.863Z,2.30
2018-02-02T17:45:36.507Z,2.30
2018-02-02T17:48:04.186Z,2.30
2018-02-02T17:50:31.805Z,2.30
2018-02-02T17:52:59.415Z,2.40
2018-02-02T17:55:27.022Z,2.30
2018-02-02T17:57:54.619Z,2.30
2018-02-02T18:00:25.735Z,2.30
2018-02-02T18:02:56.020Z,2.20
2018-02-02T18:05:23.643Z,2.10
2018-02-02T18:07:51.265Z,2.10
2018-02-02T18:10:18.850Z,2.00
2018-02-02T18:12:46.468Z,2.00
2018-02-02T18:15:14.098Z,2.00
2018-02-02T18:17:42.690Z,1.90
2018-02-02T18:20:10.302Z,1.90
2018-02-02T18:22:38.688Z,1.90
2018-02-02T18:25:11.786Z,1.90
2018-02-02T18:27:39.367Z,1.90
2018-02-02T18:30:06.955Z,1.90
2018-02-02T18:32:34.559Z,1.90
2018-02-02T18:35:02.919Z,1.80
2018-02-02T18:37:30.539Z,1.80
2018-02-02T18:39:58.118Z,1.80
2018-02-02T18:42:25.698Z,1.70
2018-02-02T18:44:53.255Z,1.70
2018-02-02T18:47:20.827Z,1.70
2018-02-02T18:49:49.199Z,1.60
2018-02-02T18:52:17.580Z,1.50
2018-02-02T18:54:45.895Z,1.50
2018-02-02T18:57:13.487Z,1.40
2018-02-02T18:59:41.095Z,1.50
2018-02-02T19:02:08.680Z,1.50
2018-02-02T19:04:37.059Z,1.50
2018-02-02T19:07:04.656Z,1.40
2018-02-02T19:09:32.263Z,1.50
2018-02-02T19:11:59.826Z,1.40
2018-02-02T19:14:27.426Z,1.50
2018-02-02T19:16:55.037Z,1.50
2018-02-02T19:19:26.153Z,1.60
2018-02-02T19:21:59.070Z,1.60
2018-02-02T19:24:26.729Z,1.60
2018-02-02T19:26:54.344Z,1.60
2018-02-02T19:29:21.993Z,1.60
2018-02-02T19:31:49.652Z,1.50
2018-02-02T19:34:17.267Z,1.50
2018-02-02T19:36:44.887Z,1.50
2018-02-02T19:39:12.504Z,1.60
2018-02-02T19:41:40.075Z,1.60
2018-02-02T19:44:07.664Z,1.60
2018-02-02T19:46:35.263Z,1.70
2018-02-02T19:49:02.855Z,1.60
2018-02-02T19:51:30.502Z,1.60
2018-02-02T19:53:58.125Z,1.60
2018-02-02T19:56:25.795Z,1.60
2018-02-02T19:58:53.349Z,1.60
2018-02-02T20:01:20.942Z,1.60
2018-02-02T20:03:48.578Z,1.70
2018-02-02T20:06:16.943Z,1.80
2018-02-02T20:08:44.523Z,1.80
2018-02-02T20:11:12.111Z,1.80
2018-02-02T20:13:39.783Z,1.80
2018-02-02T20:16:07.387Z,1.80
2018-02-02T20:18:35.760Z,1.90
2018-02-02T20:21:03.366Z,1.90
2018-02-02T20:23:30.981Z,1.90
2018-02-02T20:26:03.240Z,1.90
2018-02-02T20:28:30.866Z,1.90
2018-02-02T20:30:58.489Z,1.80
2018-02-02T20:33:26.091Z,1.80
2018-02-02T20:35:53.656Z,1.90
2018-02-02T20:38:21.253Z,1.90
2018-02-02T20:40:49.633Z,1.80
2018-02-02T20:43:17.987Z,1.70
2018-02-02T20:45:45.575Z,1.80
2018-02-02T20:48:13.228Z,1.80
2018-02-02T20:50:40.844Z,1.80
2018-02-02T20:53:08.464Z,1.80
2018-02-02T20:55:36.860Z,1.80
2018-02-02T20:58:04.497Z,1.80
2018-02-02T21:00:32.843Z,1.80
2018-02-02T21:03:00.472Z,1.80
2018-02-02T21:05:28.072Z,1.80
2018-02-02T21:07:55.650Z,1.80
2018-02-02T21:10:23.256Z,1.80
2018-02-02T21:12:50.850Z,1.80
2018-02-02T21:15:18.463Z,1.80
2018-02-02T21:17:53.080Z,1.80
2018-02-02T21:20:20.721Z,1.70
2018-02-02T21:22:48.301Z,1.80
2018-02-02T21:25:15.976Z,1.70
2018-02-02T21:27:43.584Z,1.70
2018-02-02T21:30:11.186Z,1.70
2018-02-02T21:32:38.771Z,1.80
2018-02-02T21:35:06.376Z,1.70
2018-02-02T21:37:33.997Z,1.70
2018-02-02T21:40:01.615Z,1.70
2018-02-02T21:42:29.959Z,1.70
2018-02-02T21:44:57.584Z,1.70
2018-02-02T21:47:25.203Z,1.70
2018-02-02T21:49:52.840Z,1.70
2018-02-02T21:52:20.467Z,1.70
2018-02-02T21:54:48.083Z,1.60
2018-02-02T21:57:15.707Z,1.60
2018-02-02T21:59:43.295Z,1.50
2018-02-02T22:02:10.913Z,1.50
2018-02-02T22:04:40.494Z,1.50
2018-02-02T22:07:08.127Z,1.50
2018-02-02T22:09:35.762Z,1.40
2018-02-02T22:12:03.334Z,1.40
2018-02-02T22:14:30.956Z,1.30
2018-02-02T22:16:58.535Z,1.20
2018-02-02T22:19:26.168Z,1.30
2018-02-02T22:21:53.730Z,1.20
2018-02-02T22:24:21.347Z,1.10
2018-02-02T22:26:48.942Z,1.00
2018-02-02T22:29:16.571Z,1.00
2018-02-02T22:31:44.151Z,1.00
2018-02-02T22:34:11.731Z,1.00
2018-02-02T22:36:39.354Z,1.00
2018-02-02T22:39:06.975Z,1.10
2018-02-02T22:41:34.568Z,1.10
2018-02-02T22:44:02.197Z,1.10
2018-02-02T22:46:29.798Z,1.10
2018-02-02T22:48:57.416Z,1.10
2018-02-02T22:51:25.035Z,1.20
2018-02-02T22:53:52.587Z,1.20
2018-02-02T22:56:20.215Z,1.30
2018-02-02T22:58:47.776Z,1.30
2018-02-02T23:01:15.422Z,1.30
2018-02-02T23:03:43.022Z,1.30
2018-02-02T23:06:10.638Z,1.30
2018-02-02T23:08:38.217Z,1.30
2018-02-02T23:11:05.818Z,1.30
2018-02-02T23:13:34.183Z,1.20
2018-02-02T23:16:01.813Z,1.20
2018-02-02T23:18:30.171Z,1.20
2018-02-02T23:20:57.748Z,1.20
2018-02-02T23:23:25.330Z,1.20
2018-02-02T23:25:52.950Z,1.20
2018-02-02T23:28:20.535Z,1.20
2018-02-02T23:30:48.143Z,1.30
2018-02-02T23:33:16.493Z,1.30
2018-02-02T23:35:44.049Z,1.30
2018-02-02T23:38:11.643Z,1.30
2018-02-02T23:40:39.232Z,1.30
2018-02-02T23:43:06.869Z,1.30
2018-02-02T23:45:34.461Z,1.30
2018-02-02T23:48:02.052Z,1.20
2018-02-02T23:50:29.626Z,1.10
2018-02-02T23:52:58.019Z,1.00
2018-02-02T23:55:25.631Z,1.00
2018-02-02T23:57:53.240Z,1.00
